sensor_id;sensor_type;location;lat;lon;timestamp;P1;durP1;ratioP1;P2;durP2;ratioP2
9722;SDS011;4900;49.306;8.500;2022-08-18T00:02:54;6.40;;;5.80;;
9722;SDS011;4900;49.306;8.500;2022-08-18T00:06:07;5.47;;;4.88;;
9722;SDS011;4900;49.306;8.500;2022-08-18T00:09:10;5.93;;;5.20;;
9722;SDS011;4900;49.306;8.500;2022-08-18T00:12:16;5.65;;;5.13;;
9722;SDS011;4900;49.306;8.500;2022-08-18T00:15:22;5.53;;;5.00;;
9722;SDS011;4900;49.306;8.500;2022-08-18T00:18:25;6.18;;;5.38;;
9722;SDS011;4900;49.306;8.500;2022-08-18T00:21:28;7.95;;;5.50;;
9722;SDS011;4900;49.306;8.500;2022-08-18T00:24:32;8.40;;;5.47;;
9722;SDS011;4900;49.306;8.500;2022-08-18T00:27:35;6.82;;;6.03;;
9722;SDS011;4900;49.306;8.500;2022-08-18T00:30:39;6.80;;;6.10;;
9722;SDS011;4900;49.306;8.500;2022-08-18T00:33:42;7.20;;;5.90;;
9722;SDS011;4900;49.306;8.500;2022-08-18T00:36:45;6.47;;;5.88;;
9722;SDS011;4900;49.306;8.500;2022-08-18T00:39:49;6.60;;;6.00;;
9722;SDS011;4900;49.306;8.500;2022-08-18T00:42:56;6.30;;;5.68;;
9722;SDS011;4900;49.306;8.500;2022-08-18T00:46:01;6.18;;;5.55;;
9722;SDS011;4900;49.306;8.500;2022-08-18T00:49:07;5.50;;;5.00;;
9722;SDS011;4900;49.306;8.500;2022-08-18T00:52:11;5.50;;;5.00;;
9722;SDS011;4900;49.306;8.500;2022-08-18T00:55:17;7.60;;;5.22;;
9722;SDS011;4900;49.306;8.500;2022-08-18T00:58:26;5.18;;;4.68;;
9722;SDS011;4900;49.306;8.500;2022-08-18T01:01:34;5.65;;;5.15;;
9722;SDS011;4900;49.306;8.500;2022-08-18T01:04:42;5.70;;;5.28;;
9722;SDS011;4900;49.306;8.500;2022-08-18T01:07:51;5.40;;;4.90;;
9722;SDS011;4900;49.306;8.500;2022-08-18T01:10:56;5.72;;;5.00;;
9722;SDS011;4900;49.306;8.500;2022-08-18T01:14:07;5.60;;;5.10;;
9722;SDS011;4900;49.306;8.500;2022-08-18T01:17:12;5.28;;;4.78;;
9722;SDS011;4900;49.306;8.500;2022-08-18T01:20:35;6.20;;;5.60;;
9722;SDS011;4900;49.306;8.500;2022-08-18T01:24:23;5.78;;;5.18;;
9722;SDS011;4900;49.306;8.500;2022-08-18T01:27:49;6.28;;;5.10;;
9722;SDS011;4900;49.306;8.500;2022-08-18T01:30:54;5.43;;;4.93;;
9722;SDS011;4900;49.306;8.500;2022-08-18T01:33:59;5.43;;;5.03;;
9722;SDS011;4900;49.306;8.500;2022-08-18T01:37:02;5.80;;;5.30;;
9722;SDS011;4900;49.306;8.500;2022-08-18T01:40:08;5.57;;;5.07;;
9722;SDS011;4900;49.306;8.500;2022-08-18T01:43:13;5.55;;;5.03;;
9722;SDS011;4900;49.306;8.500;2022-08-18T01:46:20;5.53;;;5.03;;
9722;SDS011;4900;49.306;8.500;2022-08-18T01:49:24;5.85;;;5.35;;
9722;SDS011;4900;49.306;8.500;2022-08-18T01:52:30;5.78;;;4.85;;
9722;SDS011;4900;49.306;8.500;2022-08-18T01:55:33;5.35;;;4.85;;
9722;SDS011;4900;49.306;8.500;2022-08-18T01:58:38;6.80;;;4.88;;
9722;SDS011;4900;49.306;8.500;2022-08-18T02:01:43;5.40;;;4.90;;
9722;SDS011;4900;49.306;8.500;2022-08-18T02:04:53;5.70;;;5.20;;
9722;SDS011;4900;49.306;8.500;2022-08-18T02:08:05;5.15;;;4.75;;
9722;SDS011;4900;49.306;8.500;2022-08-18T02:11:08;6.03;;;5.10;;
9722;SDS011;4900;49.306;8.500;2022-08-18T02:14:12;5.75;;;5.05;;
9722;SDS011;4900;49.306;8.500;2022-08-18T02:17:15;5.05;;;4.65;;
9722;SDS011;4900;49.306;8.500;2022-08-18T02:20:18;5.18;;;4.68;;
9722;SDS011;4900;49.306;8.500;2022-08-18T02:23:21;5.22;;;4.75;;
9722;SDS011;4900;49.306;8.500;2022-08-18T02:26:25;5.18;;;4.68;;
9722;SDS011;4900;49.306;8.500;2022-08-18T02:29:28;6.00;;;4.78;;
9722;SDS011;4900;49.306;8.500;2022-08-18T02:32:32;5.43;;;4.88;;
9722;SDS011;4900;49.306;8.500;2022-08-18T02:35:37;5.30;;;4.80;;
9722;SDS011;4900;49.306;8.500;2022-08-18T02:38:40;5.30;;;4.80;;
9722;SDS011;4900;49.306;8.500;2022-08-18T02:41:45;5.22;;;4.57;;
9722;SDS011;4900;49.306;8.500;2022-08-18T02:44:48;5.72;;;5.13;;
9722;SDS011;4900;49.306;8.500;2022-08-18T02:47:52;5.43;;;4.97;;
9722;SDS011;4900;49.306;8.500;2022-08-18T02:51:00;6.63;;;4.70;;
9722;SDS011;4900;49.306;8.500;2022-08-18T02:54:04;5.22;;;4.72;;
9722;SDS011;4900;49.306;8.500;2022-08-18T02:57:11;5.78;;;5.20;;
9722;SDS011;4900;49.306;8.500;2022-08-18T03:00:15;5.50;;;4.90;;
9722;SDS011;4900;49.306;8.500;2022-08-18T03:03:20;5.78;;;5.22;;
9722;SDS011;4900;49.306;8.500;2022-08-18T03:06:24;5.70;;;5.20;;
9722;SDS011;4900;49.306;8.500;2022-08-18T03:09:28;6.28;;;4.90;;
9722;SDS011;4900;49.306;8.500;2022-08-18T03:12:33;5.65;;;5.15;;
9722;SDS011;4900;49.306;8.500;2022-08-18T03:15:36;6.18;;;4.70;;
9722;SDS011;4900;49.306;8.500;2022-08-18T03:18:40;6.03;;;5.25;;
9722;SDS011;4900;49.306;8.500;2022-08-18T03:21:44;6.03;;;5.40;;
9722;SDS011;4900;49.306;8.500;2022-08-18T03:24:49;6.63;;;5.93;;
9722;SDS011;4900;49.306;8.500;2022-08-18T03:27:52;6.20;;;5.60;;
9722;SDS011;4900;49.306;8.500;2022-08-18T03:30:55;5.82;;;5.22;;
9722;SDS011;4900;49.306;8.500;2022-08-18T03:33:58;5.55;;;5.05;;
9722;SDS011;4900;49.306;8.500;2022-08-18T03:37:03;7.72;;;6.00;;
9722;SDS011;4900;49.306;8.500;2022-08-18T03:40:07;6.13;;;5.53;;
9722;SDS011;4900;49.306;8.500;2022-08-18T03:43:12;7.60;;;6.80;;
9722;SDS011;4900;49.306;8.500;2022-08-18T03:46:15;6.32;;;5.72;;
9722;SDS011;4900;49.306;8.500;2022-08-18T03:49:20;5.57;;;5.07;;
9722;SDS011;4900;49.306;8.500;2022-08-18T03:52:24;6.47;;;5.85;;
9722;SDS011;4900;49.306;8.500;2022-08-18T03:55:27;6.22;;;5.63;;
9722;SDS011;4900;49.306;8.500;2022-08-18T03:58:30;6.57;;;5.93;;
9722;SDS011;4900;49.306;8.500;2022-08-18T04:01:39;6.40;;;5.80;;
9722;SDS011;4900;49.306;8.500;2022-08-18T04:04:44;6.72;;;6.13;;
9722;SDS011;4900;49.306;8.500;2022-08-18T04:07:47;7.85;;;7.15;;
9722;SDS011;4900;49.306;8.500;2022-08-18T04:10:50;8.00;;;7.20;;
9722;SDS011;4900;49.306;8.500;2022-08-18T04:13:54;8.23;;;6.90;;
9722;SDS011;4900;49.306;8.500;2022-08-18T04:16:59;7.40;;;6.70;;
9722;SDS011;4900;49.306;8.500;2022-08-18T04:20:02;8.10;;;6.40;;
9722;SDS011;4900;49.306;8.500;2022-08-18T04:23:06;7.30;;;6.60;;
9722;SDS011;4900;49.306;8.500;2022-08-18T04:26:10;7.03;;;6.40;;
9722;SDS011;4900;49.306;8.500;2022-08-18T04:29:15;6.20;;;5.70;;
9722;SDS011;4900;49.306;8.500;2022-08-18T04:32:21;6.40;;;5.75;;
9722;SDS011;4900;49.306;8.500;2022-08-18T04:35:25;7.47;;;6.38;;
9722;SDS011;4900;49.306;8.500;2022-08-18T04:38:31;6.78;;;6.07;;
9722;SDS011;4900;49.306;8.500;2022-08-18T04:41:35;6.60;;;6.00;;
9722;SDS011;4900;49.306;8.500;2022-08-18T04:44:39;7.00;;;6.00;;
9722;SDS011;4900;49.306;8.500;2022-08-18T04:47:42;7.30;;;6.60;;
9722;SDS011;4900;49.306;8.500;2022-08-18T04:50:45;7.15;;;6.45;;
9722;SDS011;4900;49.306;8.500;2022-08-18T04:53:48;7.00;;;6.40;;
9722;SDS011;4900;49.306;8.500;2022-08-18T04:56:51;7.05;;;6.38;;
9722;SDS011;4900;49.306;8.500;2022-08-18T04:59:55;7.25;;;6.25;;
9722;SDS011;4900;49.306;8.500;2022-08-18T05:02:59;7.38;;;6.68;;
9722;SDS011;4900;49.306;8.500;2022-08-18T05:06:03;7.32;;;6.15;;
9722;SDS011;4900;49.306;8.500;2022-08-18T05:09:09;6.70;;;6.10;;
9722;SDS011;4900;49.306;8.500;2022-08-18T05:12:14;6.47;;;5.88;;
9722;SDS011;4900;49.306;8.500;2022-08-18T05:15:18;7.18;;;6.45;;
9722;SDS011;4900;49.306;8.500;2022-08-18T05:18:22;6.32;;;5.72;;
9722;SDS011;4900;49.306;8.500;2022-08-18T05:21:26;7.13;;;6.43;;
9722;SDS011;4900;49.306;8.500;2022-08-18T05:24:30;6.90;;;6.30;;
9722;SDS011;4900;49.306;8.500;2022-08-18T05:27:35;7.65;;;6.90;;
9722;SDS011;4900;49.306;8.500;2022-08-18T05:30:40;8.02;;;7.07;;
9722;SDS011;4900;49.306;8.500;2022-08-18T05:33:44;7.00;;;6.30;;
9722;SDS011;4900;49.306;8.500;2022-08-18T05:39:56;7.25;;;6.55;;
9722;SDS011;4900;49.306;8.500;2022-08-18T05:43:04;7.10;;;6.47;;
9722;SDS011;4900;49.306;8.500;2022-08-18T05:46:08;7.03;;;6.43;;
9722;SDS011;4900;49.306;8.500;2022-08-18T05:49:12;7.15;;;6.35;;
9722;SDS011;4900;49.306;8.500;2022-08-18T05:55:54;6.60;;;5.95;;
9722;SDS011;4900;49.306;8.500;2022-08-18T05:59:24;7.68;;;6.18;;
9722;SDS011;4900;49.306;8.500;2022-08-18T06:22:35;9.43;;;7.40;;
9722;SDS011;4900;49.306;8.500;2022-08-18T06:26:02;6.60;;;6.00;;
9722;SDS011;4900;49.306;8.500;2022-08-18T06:29:17;6.40;;;5.90;;
9722;SDS011;4900;49.306;8.500;2022-08-18T06:35:51;6.80;;;6.10;;
9722;SDS011;4900;49.306;8.500;2022-08-18T06:39:06;6.68;;;5.90;;
9722;SDS011;4900;49.306;8.500;2022-08-18T06:42:22;8.05;;;6.88;;
9722;SDS011;4900;49.306;8.500;2022-08-18T06:45:32;6.97;;;6.32;;
9722;SDS011;4900;49.306;8.500;2022-08-18T06:48:43;7.40;;;6.47;;
9722;SDS011;4900;49.306;8.500;2022-08-18T06:51:56;8.32;;;7.47;;
9722;SDS011;4900;49.306;8.500;2022-08-18T06:55:10;6.85;;;6.25;;
9722;SDS011;4900;49.306;8.500;2022-08-18T06:58:20;6.93;;;6.22;;
9722;SDS011;4900;49.306;8.500;2022-08-18T07:01:28;8.52;;;7.68;;
9722;SDS011;4900;49.306;8.500;2022-08-18T07:04:41;6.68;;;6.13;;
9722;SDS011;4900;49.306;8.500;2022-08-18T07:08:00;6.40;;;5.80;;
9722;SDS011;4900;49.306;8.500;2022-08-18T07:11:56;6.85;;;6.25;;
9722;SDS011;4900;49.306;8.500;2022-08-18T07:14:45;6.93;;;6.25;;
9722;SDS011;4900;49.306;8.500;2022-08-18T07:17:51;6.60;;;6.00;;
9722;SDS011;4900;49.306;8.500;2022-08-18T07:21:06;7.28;;;6.57;;
9722;SDS011;4900;49.306;8.500;2022-08-18T07:24:24;9.50;;;6.95;;
9722;SDS011;4900;49.306;8.500;2022-08-18T07:27:39;7.03;;;6.43;;
9722;SDS011;4900;49.306;8.500;2022-08-18T07:30:53;6.97;;;6.32;;
9722;SDS011;4900;49.306;8.500;2022-08-18T07:34:23;8.02;;;7.22;;
9722;SDS011;4900;49.306;8.500;2022-08-18T07:37:32;8.75;;;7.88;;
9722;SDS011;4900;49.306;8.500;2022-08-18T07:40:45;9.45;;;8.45;;
9722;SDS011;4900;49.306;8.500;2022-08-18T07:50:37;7.72;;;7.07;;
9722;SDS011;4900;49.306;8.500;2022-08-18T08:07:22;7.00;;;6.30;;
9722;SDS011;4900;49.306;8.500;2022-08-18T08:17:32;8.63;;;7.78;;
9722;SDS011;4900;49.306;8.500;2022-08-18T08:20:47;10.95;;;9.95;;
9722;SDS011;4900;49.306;8.500;2022-08-18T08:24:19;9.63;;;8.73;;
9722;SDS011;4900;49.306;8.500;2022-08-18T08:27:49;8.63;;;7.78;;
9722;SDS011;4900;49.306;8.500;2022-08-18T08:31:07;11.68;;;10.48;;
9722;SDS011;4900;49.306;8.500;2022-08-18T08:37:29;10.38;;;9.45;;
9722;SDS011;4900;49.306;8.500;2022-08-18T08:40:48;11.55;;;10.35;;
9722;SDS011;4900;49.306;8.500;2022-08-18T08:44:10;12.43;;;11.23;;
9722;SDS011;4900;49.306;8.500;2022-08-18T08:47:20;9.50;;;8.63;;
9722;SDS011;4900;49.306;8.500;2022-08-18T08:50:29;9.10;;;8.30;;
9722;SDS011;4900;49.306;8.500;2022-08-18T08:53:47;9.57;;;8.63;;
9722;SDS011;4900;49.306;8.500;2022-08-18T08:56:54;14.55;;;13.15;;
9722;SDS011;4900;49.306;8.500;2022-08-18T09:00:03;16.05;;;14.55;;
9722;SDS011;4900;49.306;8.500;2022-08-18T09:03:12;14.07;;;12.75;;
9722;SDS011;4900;49.306;8.500;2022-08-18T09:23:45;16.45;;;14.73;;
9722;SDS011;4900;49.306;8.500;2022-08-18T09:27:11;17.55;;;14.88;;
9722;SDS011;4900;49.306;8.500;2022-08-18T09:34:08;18.35;;;16.50;;
9722;SDS011;4900;49.306;8.500;2022-08-18T09:37:18;13.50;;;11.80;;
9722;SDS011;4900;49.306;8.500;2022-08-18T09:40:25;16.67;;;14.70;;
9722;SDS011;4900;49.306;8.500;2022-08-18T09:44:06;17.00;;;15.45;;
9722;SDS011;4900;49.306;8.500;2022-08-18T09:59:55;17.25;;;15.65;;
9722;SDS011;4900;49.306;8.500;2022-08-18T10:03:02;17.73;;;16.02;;
9722;SDS011;4900;49.306;8.500;2022-08-18T10:06:13;13.00;;;11.82;;
9722;SDS011;4900;49.306;8.500;2022-08-18T10:23:45;18.27;;;16.38;;
9722;SDS011;4900;49.306;8.500;2022-08-18T10:29:57;15.07;;;13.57;;
9722;SDS011;4900;49.306;8.500;2022-08-18T10:33:09;16.60;;;15.13;;
9722;SDS011;4900;49.306;8.500;2022-08-18T10:36:29;18.10;;;16.40;;
9722;SDS011;4900;49.306;8.500;2022-08-18T10:42:49;16.55;;;15.07;;
9722;SDS011;4900;49.306;8.500;2022-08-18T10:45:57;18.00;;;16.30;;
9722;SDS011;4900;49.306;8.500;2022-08-18T10:49:01;14.23;;;12.80;;
9722;SDS011;4900;49.306;8.500;2022-08-18T10:59:42;15.77;;;14.23;;
9722;SDS011;4900;49.306;8.500;2022-08-18T11:06:16;13.70;;;12.48;;
9722;SDS011;4900;49.306;8.500;2022-08-18T11:09:27;13.20;;;12.00;;
9722;SDS011;4900;49.306;8.500;2022-08-18T11:19:24;14.65;;;13.23;;
9722;SDS011;4900;49.306;8.500;2022-08-18T11:22:31;17.05;;;15.38;;
9722;SDS011;4900;49.306;8.500;2022-08-18T11:25:35;17.05;;;15.38;;
9722;SDS011;4900;49.306;8.500;2022-08-18T11:28:41;15.27;;;13.88;;
9722;SDS011;4900;49.306;8.500;2022-08-18T11:31:45;11.30;;;10.35;;
9722;SDS011;4900;49.306;8.500;2022-08-18T11:38:12;14.63;;;13.38;;
9722;SDS011;4900;49.306;8.500;2022-08-18T11:41:17;12.52;;;11.32;;
9722;SDS011;4900;49.306;8.500;2022-08-18T11:44:28;17.77;;;16.17;;
9722;SDS011;4900;49.306;8.500;2022-08-18T11:47:35;16.67;;;15.18;;
9722;SDS011;4900;49.306;8.500;2022-08-18T11:50:59;13.82;;;12.63;;
9722;SDS011;4900;49.306;8.500;2022-08-18T12:03:55;15.10;;;13.60;;
9722;SDS011;4900;49.306;8.500;2022-08-18T12:07:06;13.30;;;12.00;;
9722;SDS011;4900;49.306;8.500;2022-08-18T12:10:19;17.92;;;16.33;;
9722;SDS011;4900;49.306;8.500;2022-08-18T12:13:25;19.73;;;17.80;;
9722;SDS011;4900;49.306;8.500;2022-08-18T12:16:33;15.40;;;13.90;;
9722;SDS011;4900;49.306;8.500;2022-08-18T12:19:37;17.35;;;15.70;;
9722;SDS011;4900;49.306;8.500;2022-08-18T12:22:40;18.52;;;16.73;;
9722;SDS011;4900;49.306;8.500;2022-08-18T12:25:45;18.58;;;16.85;;
9722;SDS011;4900;49.306;8.500;2022-08-18T12:28:47;16.55;;;15.05;;
9722;SDS011;4900;49.306;8.500;2022-08-18T12:31:52;14.85;;;13.52;;
9722;SDS011;4900;49.306;8.500;2022-08-18T12:34:56;17.65;;;16.05;;
9722;SDS011;4900;49.306;8.500;2022-08-18T12:38:00;17.98;;;16.27;;
9722;SDS011;4900;49.306;8.500;2022-08-18T12:41:03;17.98;;;16.27;;
9722;SDS011;4900;49.306;8.500;2022-08-18T12:44:07;17.73;;;16.13;;
9722;SDS011;4900;49.306;8.500;2022-08-18T12:47:11;17.02;;;15.60;;
9722;SDS011;4900;49.306;8.500;2022-08-18T12:50:20;17.70;;;16.23;;
9722;SDS011;4900;49.306;8.500;2022-08-18T12:53:24;17.80;;;16.10;;
9722;SDS011;4900;49.306;8.500;2022-08-18T12:56:28;16.52;;;15.10;;
9722;SDS011;4900;49.306;8.500;2022-08-18T12:59:33;15.35;;;13.95;;
9722;SDS011;4900;49.306;8.500;2022-08-18T13:02:38;17.90;;;16.40;;
9722;SDS011;4900;49.306;8.500;2022-08-18T13:05:41;13.80;;;12.50;;
9722;SDS011;4900;49.306;8.500;2022-08-18T13:08:44;16.40;;;15.00;;
9722;SDS011;4900;49.306;8.500;2022-08-18T13:11:47;16.30;;;14.93;;
9722;SDS011;4900;49.306;8.500;2022-08-18T13:14:50;15.57;;;14.18;;
9722;SDS011;4900;49.306;8.500;2022-08-18T13:17:56;14.35;;;13.10;;
9722;SDS011;4900;49.306;8.500;2022-08-18T13:20:59;14.95;;;13.63;;
9722;SDS011;4900;49.306;8.500;2022-08-18T13:24:04;13.45;;;12.25;;
9722;SDS011;4900;49.306;8.500;2022-08-18T13:27:08;13.32;;;12.13;;
9722;SDS011;4900;49.306;8.500;2022-08-18T13:30:13;14.38;;;13.27;;
9722;SDS011;4900;49.306;8.500;2022-08-18T13:33:18;15.43;;;13.98;;
9722;SDS011;4900;49.306;8.500;2022-08-18T13:36:22;15.93;;;14.60;;
9722;SDS011;4900;49.306;8.500;2022-08-18T13:39:26;15.25;;;14.02;;
9722;SDS011;4900;49.306;8.500;2022-08-18T13:42:30;13.98;;;12.77;;
9722;SDS011;4900;49.306;8.500;2022-08-18T13:45:33;14.85;;;13.55;;
9722;SDS011;4900;49.306;8.500;2022-08-18T13:48:37;12.30;;;11.15;;
9722;SDS011;4900;49.306;8.500;2022-08-18T13:51:42;13.60;;;12.50;;
9722;SDS011;4900;49.306;8.500;2022-08-18T13:54:46;13.98;;;12.85;;
9722;SDS011;4900;49.306;8.500;2022-08-18T13:57:50;13.45;;;12.10;;
9722;SDS011;4900;49.306;8.500;2022-08-18T14:01:04;11.93;;;10.73;;
9722;SDS011;4900;49.306;8.500;2022-08-18T14:04:13;12.13;;;10.98;;
9722;SDS011;4900;49.306;8.500;2022-08-18T14:07:17;11.45;;;10.45;;
9722;SDS011;4900;49.306;8.500;2022-08-18T14:10:20;11.88;;;10.88;;
9722;SDS011;4900;49.306;8.500;2022-08-18T14:13:24;12.85;;;11.75;;
9722;SDS011;4900;49.306;8.500;2022-08-18T14:16:28;11.57;;;10.55;;
9722;SDS011;4900;49.306;8.500;2022-08-18T14:19:31;12.77;;;11.48;;
9722;SDS011;4900;49.306;8.500;2022-08-18T14:22:54;13.63;;;12.52;;
9722;SDS011;4900;49.306;8.500;2022-08-18T14:26:18;13.25;;;12.05;;
9722;SDS011;4900;49.306;8.500;2022-08-18T14:29:39;13.18;;;12.10;;
9722;SDS011;4900;49.306;8.500;2022-08-18T14:32:44;11.73;;;10.75;;
9722;SDS011;4900;49.306;8.500;2022-08-18T14:35:48;11.30;;;10.20;;
9722;SDS011;4900;49.306;8.500;2022-08-18T14:38:51;12.10;;;10.90;;
9722;SDS011;4900;49.306;8.500;2022-08-18T14:41:55;14.77;;;13.57;;
9722;SDS011;4900;49.306;8.500;2022-08-18T14:45:00;13.73;;;12.35;;
9722;SDS011;4900;49.306;8.500;2022-08-18T14:48:04;14.93;;;13.63;;
9722;SDS011;4900;49.306;8.500;2022-08-18T14:51:08;12.88;;;11.85;;
9722;SDS011;4900;49.306;8.500;2022-08-18T14:54:12;13.07;;;12.00;;
9722;SDS011;4900;49.306;8.500;2022-08-18T14:57:15;15.48;;;14.07;;
9722;SDS011;4900;49.306;8.500;2022-08-18T15:00:19;15.05;;;13.80;;
9722;SDS011;4900;49.306;8.500;2022-08-18T15:03:23;15.05;;;13.82;;
9722;SDS011;4900;49.306;8.500;2022-08-18T15:06:28;17.55;;;16.10;;
9722;SDS011;4900;49.306;8.500;2022-08-18T15:09:31;13.65;;;12.20;;
9722;SDS011;4900;49.306;8.500;2022-08-18T15:12:34;18.38;;;16.77;;
9722;SDS011;4900;49.306;8.500;2022-08-18T15:15:38;18.63;;;17.05;;
9722;SDS011;4900;49.306;8.500;2022-08-18T15:18:43;15.25;;;13.95;;
9722;SDS011;4900;49.306;8.500;2022-08-18T15:21:48;17.65;;;16.20;;
9722;SDS011;4900;49.306;8.500;2022-08-18T15:25:10;17.05;;;15.63;;
9722;SDS011;4900;49.306;8.500;2022-08-18T15:28:32;17.42;;;15.93;;
9722;SDS011;4900;49.306;8.500;2022-08-18T15:31:36;14.25;;;12.93;;
9722;SDS011;4900;49.306;8.500;2022-08-18T15:34:40;16.10;;;14.80;;
9722;SDS011;4900;49.306;8.500;2022-08-18T15:37:46;15.20;;;13.88;;
9722;SDS011;4900;49.306;8.500;2022-08-18T15:40:51;14.82;;;13.43;;
9722;SDS011;4900;49.306;8.500;2022-08-18T15:43:56;14.32;;;13.13;;
9722;SDS011;4900;49.306;8.500;2022-08-18T15:47:00;12.68;;;11.45;;
9722;SDS011;4900;49.306;8.500;2022-08-18T15:50:06;11.95;;;10.80;;
9722;SDS011;4900;49.306;8.500;2022-08-18T15:53:10;9.90;;;9.00;;
9722;SDS011;4900;49.306;8.500;2022-08-18T15:56:15;8.93;;;8.23;;
9722;SDS011;4900;49.306;8.500;2022-08-18T15:59:20;10.23;;;9.32;;
9722;SDS011;4900;49.306;8.500;2022-08-18T16:02:23;9.02;;;8.32;;
9722;SDS011;4900;49.306;8.500;2022-08-18T16:05:28;7.80;;;7.18;;
9722;SDS011;4900;49.306;8.500;2022-08-18T16:08:33;7.90;;;7.20;;
9722;SDS011;4900;49.306;8.500;2022-08-18T16:11:37;8.32;;;7.63;;
9722;SDS011;4900;49.306;8.500;2022-08-18T16:14:40;8.70;;;8.00;;
9722;SDS011;4900;49.306;8.500;2022-08-18T16:17:43;8.95;;;7.85;;
9722;SDS011;4900;49.306;8.500;2022-08-18T16:20:48;9.85;;;8.88;;
9722;SDS011;4900;49.306;8.500;2022-08-18T16:23:52;8.85;;;8.05;;
9722;SDS011;4900;49.306;8.500;2022-08-18T16:26:56;9.10;;;8.30;;
9722;SDS011;4900;49.306;8.500;2022-08-18T16:30:02;8.90;;;8.10;;
9722;SDS011;4900;49.306;8.500;2022-08-18T16:33:06;8.50;;;7.80;;
9722;SDS011;4900;49.306;8.500;2022-08-18T16:36:10;7.60;;;6.82;;
9722;SDS011;4900;49.306;8.500;2022-08-18T16:39:17;9.27;;;8.48;;
9722;SDS011;4900;49.306;8.500;2022-08-18T16:42:21;10.10;;;9.23;;
9722;SDS011;4900;49.306;8.500;2022-08-18T16:45:26;11.38;;;10.38;;
9722;SDS011;4900;49.306;8.500;2022-08-18T16:48:29;10.73;;;9.82;;
9722;SDS011;4900;49.306;8.500;2022-08-18T16:51:37;9.88;;;8.95;;
9722;SDS011;4900;49.306;8.500;2022-08-18T16:54:41;11.13;;;10.13;;
9722;SDS011;4900;49.306;8.500;2022-08-18T16:57:44;10.90;;;9.93;;
9722;SDS011;4900;49.306;8.500;2022-08-18T17:01:07;11.07;;;10.18;;
9722;SDS011;4900;49.306;8.500;2022-08-18T17:04:29;12.07;;;11.00;;
9722;SDS011;4900;49.306;8.500;2022-08-18T17:07:37;11.15;;;10.05;;
9722;SDS011;4900;49.306;8.500;2022-08-18T17:30:13;12.40;;;11.20;;
9722;SDS011;4900;49.306;8.500;2022-08-18T17:37:22;13.48;;;12.15;;
9722;SDS011;4900;49.306;8.500;2022-08-18T17:45:29;13.18;;;11.98;;
9722;SDS011;4900;49.306;8.500;2022-08-18T17:48:39;12.20;;;11.07;;
9722;SDS011;4900;49.306;8.500;2022-08-18T17:51:46;12.90;;;11.70;;
9722;SDS011;4900;49.306;8.500;2022-08-18T17:54:55;11.98;;;10.93;;
9722;SDS011;4900;49.306;8.500;2022-08-18T18:01:41;11.98;;;10.98;;
9722;SDS011;4900;49.306;8.500;2022-08-18T18:04:45;11.90;;;10.80;;
9722;SDS011;4900;49.306;8.500;2022-08-18T18:10:53;15.55;;;14.02;;
9722;SDS011;4900;49.306;8.500;2022-08-18T18:17:41;12.50;;;11.30;;
9722;SDS011;4900;49.306;8.500;2022-08-18T18:27:39;14.95;;;13.60;;
9722;SDS011;4900;49.306;8.500;2022-08-18T18:31:37;15.65;;;14.05;;
9722;SDS011;4900;49.306;8.500;2022-08-18T18:34:42;14.23;;;12.77;;
9722;SDS011;4900;49.306;8.500;2022-08-18T18:40:56;14.32;;;12.93;;
9722;SDS011;4900;49.306;8.500;2022-08-18T18:44:06;14.75;;;13.35;;
9722;SDS011;4900;49.306;8.500;2022-08-18T18:50:53;13.82;;;12.50;;
9722;SDS011;4900;49.306;8.500;2022-08-18T18:54:03;14.93;;;13.52;;
9722;SDS011;4900;49.306;8.500;2022-08-18T19:00:45;14.60;;;13.15;;
9722;SDS011;4900;49.306;8.500;2022-08-18T19:03:52;14.63;;;12.77;;
9722;SDS011;4900;49.306;8.500;2022-08-18T19:10:17;14.80;;;13.20;;
9722;SDS011;4900;49.306;8.500;2022-08-18T19:13:29;14.65;;;12.98;;
9722;SDS011;4900;49.306;8.500;2022-08-18T19:16:45;13.93;;;12.52;;
9722;SDS011;4900;49.306;8.500;2022-08-18T19:20:10;13.70;;;12.30;;
9722;SDS011;4900;49.306;8.500;2022-08-18T19:26:40;13.18;;;11.88;;
9722;SDS011;4900;49.306;8.500;2022-08-18T19:29:47;13.52;;;12.13;;
9722;SDS011;4900;49.306;8.500;2022-08-18T19:32:54;13.25;;;11.85;;
9722;SDS011;4900;49.306;8.500;2022-08-18T19:36:11;14.32;;;12.68;;
9722;SDS011;4900;49.306;8.500;2022-08-18T19:40:18;13.45;;;11.93;;
9722;SDS011;4900;49.306;8.500;2022-08-18T19:43:08;13.27;;;11.98;;
9722;SDS011;4900;49.306;8.500;2022-08-18T19:59:16;12.98;;;11.68;;
9722;SDS011;4900;49.306;8.500;2022-08-18T20:09:21;12.80;;;11.15;;
9722;SDS011;4900;49.306;8.500;2022-08-18T20:16:26;12.55;;;11.25;;
9722;SDS011;4900;49.306;8.500;2022-08-18T20:22:45;14.10;;;11.73;;
9722;SDS011;4900;49.306;8.500;2022-08-18T20:25:51;14.75;;;11.77;;
9722;SDS011;4900;49.306;8.500;2022-08-18T20:28:54;13.30;;;11.88;;
9722;SDS011;4900;49.306;8.500;2022-08-18T20:31:59;12.57;;;11.27;;
9722;SDS011;4900;49.306;8.500;2022-08-18T20:35:19;12.85;;;11.40;;
9722;SDS011;4900;49.306;8.500;2022-08-18T20:51:14;16.50;;;12.32;;
9722;SDS011;4900;49.306;8.500;2022-08-18T20:55:04;13.65;;;11.80;;
9722;SDS011;4900;49.306;8.500;2022-08-18T20:57:58;13.18;;;11.80;;
9722;SDS011;4900;49.306;8.500;2022-08-18T21:01:06;14.82;;;13.18;;
9722;SDS011;4900;49.306;8.500;2022-08-18T21:04:11;14.50;;;12.00;;
9722;SDS011;4900;49.306;8.500;2022-08-18T21:07:15;14.75;;;12.50;;
9722;SDS011;4900;49.306;8.500;2022-08-18T21:10:49;14.50;;;13.00;;
9722;SDS011;4900;49.306;8.500;2022-08-18T21:13:56;14.15;;;12.45;;
9722;SDS011;4900;49.306;8.500;2022-08-18T21:17:02;14.07;;;12.05;;
9722;SDS011;4900;49.306;8.500;2022-08-18T21:20:15;17.45;;;13.88;;
9722;SDS011;4900;49.306;8.500;2022-08-18T21:23:29;15.27;;;13.73;;
9722;SDS011;4900;49.306;8.500;2022-08-18T21:26:36;17.02;;;14.27;;
9722;SDS011;4900;49.306;8.500;2022-08-18T21:29:42;17.48;;;15.05;;
9722;SDS011;4900;49.306;8.500;2022-08-18T21:32:48;16.17;;;13.75;;
9722;SDS011;4900;49.306;8.500;2022-08-18T21:35:52;17.15;;;14.57;;
9722;SDS011;4900;49.306;8.500;2022-08-18T21:38:55;16.98;;;14.30;;
9722;SDS011;4900;49.306;8.500;2022-08-18T21:42:00;16.95;;;14.82;;
9722;SDS011;4900;49.306;8.500;2022-08-18T21:45:03;16.63;;;14.65;;
9722;SDS011;4900;49.306;8.500;2022-08-18T21:48:08;17.40;;;14.70;;
9722;SDS011;4900;49.306;8.500;2022-08-18T21:51:20;17.50;;;14.90;;
9722;SDS011;4900;49.306;8.500;2022-08-18T21:54:30;18.38;;;14.23;;
9722;SDS011;4900;49.306;8.500;2022-08-18T22:07:21;18.38;;;15.35;;
9722;SDS011;4900;49.306;8.500;2022-08-18T22:10:29;21.80;;;17.13;;
9722;SDS011;4900;49.306;8.500;2022-08-18T22:13:52;16.92;;;15.05;;
9722;SDS011;4900;49.306;8.500;2022-08-18T22:17:24;20.65;;;16.27;;
9722;SDS011;4900;49.306;8.500;2022-08-18T22:20:40;18.70;;;16.27;;
9722;SDS011;4900;49.306;8.500;2022-08-18T22:23:50;18.50;;;16.42;;
9722;SDS011;4900;49.306;8.500;2022-08-18T22:27:18;19.17;;;16.23;;
9722;SDS011;4900;49.306;8.500;2022-08-18T22:30:22;16.98;;;14.93;;
9722;SDS011;4900;49.306;8.500;2022-08-18T22:33:26;18.55;;;14.90;;
9722;SDS011;4900;49.306;8.500;2022-08-18T22:36:31;17.17;;;15.38;;
9722;SDS011;4900;49.306;8.500;2022-08-18T22:40:12;18.55;;;16.60;;
9722;SDS011;4900;49.306;8.500;2022-08-18T22:43:12;19.60;;;16.92;;
9722;SDS011;4900;49.306;8.500;2022-08-18T22:46:15;18.88;;;16.60;;
9722;SDS011;4900;49.306;8.500;2022-08-18T22:49:19;17.88;;;15.98;;
9722;SDS011;4900;49.306;8.500;2022-08-18T22:55:35;18.67;;;15.88;;
9722;SDS011;4900;49.306;8.500;2022-08-18T22:58:39;20.45;;;17.63;;
9722;SDS011;4900;49.306;8.500;2022-08-18T23:01:45;19.55;;;16.88;;
9722;SDS011;4900;49.306;8.500;2022-08-18T23:04:50;19.08;;;16.77;;
9722;SDS011;4900;49.306;8.500;2022-08-18T23:07:53;20.67;;;18.45;;
9722;SDS011;4900;49.306;8.500;2022-08-18T23:10:56;19.13;;;16.10;;
9722;SDS011;4900;49.306;8.500;2022-08-18T23:14:00;20.85;;;17.70;;
9722;SDS011;4900;49.306;8.500;2022-08-18T23:17:04;22.83;;;18.40;;
9722;SDS011;4900;49.306;8.500;2022-08-18T23:20:10;21.05;;;18.88;;
9722;SDS011;4900;49.306;8.500;2022-08-18T23:23:18;21.73;;;19.30;;
9722;SDS011;4900;49.306;8.500;2022-08-18T23:26:23;17.60;;;15.80;;
9722;SDS011;4900;49.306;8.500;2022-08-18T23:29:26;21.02;;;17.02;;
9722;SDS011;4900;49.306;8.500;2022-08-18T23:32:29;17.58;;;15.70;;